Fort Lauderdale Hollywood International Airport
KFLL : now visible

Airfield :











YOU CAN JOIN US ON...

 
LOGIN :

Register | Disclaimer

   EN    FR    IT 

 









Legend :    VFR   Marginal VFR   IFR   Intensive IFR   Very Intensive IFR
Visi :
Ceiling :
>= 8 km
>= 3000ft
5 to 8 km
1000 to 3000 ft
1500m to 5 km
500 to 1000 ft
800 to 1500m
200 to 500 ft
< 800m
< 200 ft
Symbols :   Thunderstorms  Fog  Heavy snow  Heavy precipitations  Wind > 20 kt






- Airport Elevation : 9 ft
- IATA code : FLL


KFLL - Fort Lauderdale Hollywood International

CURRENT METAR :
  • 161753Z 20007KT 10SM SCT030 BKN075 BKN250 29/22 A2999 RMK AO2 LTG DSNT W SLP155 CB DSNT W 6//// T02940222 10300 20261 58006 $

EXPIRED METARs :
  • 161653Z 17008KT 10SM SCT038 BKN045 BKN250 30/22 A3000 RMK AO2 SLP160 CB DSNT S-SW MOV N T03000222 $
  • 161553Z 19007KT 10SM SCT023CB BKN033 BKN250 29/23 A3001 RMK AO2 RAE13 SLP163 CB NW-N AND DSNT W MOV N T02890228 PNO $

TAF KFLL
Valid from the 16 at 18:00 until the 18 at 00:00 UTC


161725Z 1618/1724 19008KT P6SM VCTS SCT030CB BKN040
FM161900 17010KT P6SM VCTS SCT030CB BKN060
FM170200 VRB04KT P6SM SCT030 BKN090
FM171600 17006KT P6SM VCSH SCT030 BKN050
FM171800 15010KT P6SM VCTS SCT030CB BKN050
KZMA FIR / North America



MET'MAP, your aeronautical weather chart ! - Copyright ORBIFLY December 2007 - Disclaimer

ORBIFLY MET'MAP TEAM :

Programming & Development : Alexandra Zaïnal
Concept & original design : Baudouin d'Aumeries
Assistance for programming : Marc-Olivier Méhu
Technical & hardware support : Manuel Goepfert

Contact : metmap@orbifly.com




SOURCES & CREDITS :

   NOAA       Earth
Advisory